createdAt,value
2022-10-18T00:00:17.185Z,20.43
2022-10-18T00:02:43.702Z,20.66
2022-10-18T00:05:10.268Z,20.22
2022-10-18T00:07:36.880Z,20.14
2022-10-18T00:10:04.626Z,20.17
2022-10-18T00:12:36.247Z,20.06
2022-10-18T00:15:05.174Z,19.91
2022-10-18T00:17:32.018Z,19.89
2022-10-18T00:19:58.754Z,19.67
2022-10-18T00:22:25.437Z,19.55
2022-10-18T00:24:52.065Z,19.43
2022-10-18T00:27:19.021Z,19.71
2022-10-18T00:29:45.712Z,19.87
2022-10-18T00:32:12.357Z,19.60
2022-10-18T00:34:40.257Z,19.64
2022-10-18T00:37:06.800Z,19.78
2022-10-18T00:39:33.432Z,19.79
2022-10-18T00:41:59.900Z,19.62
2022-10-18T00:44:26.343Z,19.92
2022-10-18T00:46:56.627Z,19.93
2022-10-18T00:49:42.332Z,19.49
2022-10-18T00:52:13.409Z,19.46
2022-10-18T00:54:42.949Z,19.70
2022-10-18T00:57:10.437Z,19.49
2022-10-18T00:59:37.755Z,19.46
2022-10-18T01:02:06.111Z,19.51
2022-10-18T01:04:32.841Z,19.42
2022-10-18T01:07:21.293Z,19.39
2022-10-18T01:10:05.925Z,19.41
2022-10-18T01:13:03.036Z,19.41
2022-10-18T01:15:49.726Z,19.36
2022-10-18T01:18:16.249Z,19.90
2022-10-18T01:21:10.345Z,19.55
2022-10-18T01:23:50.761Z,19.01
2022-10-18T01:26:35.977Z,18.80
2022-10-18T01:29:22.733Z,19.03
2022-10-18T01:32:07.280Z,19.22
2022-10-18T01:34:37.007Z,19.27
2022-10-18T01:37:09.191Z,19.24
2022-10-18T01:39:38.770Z,19.18
2022-10-18T01:42:09.725Z,19.13
2022-10-18T01:44:38.950Z,19.42
2022-10-18T01:47:07.496Z,19.85
2022-10-18T01:49:34.391Z,19.63
2022-10-18T01:52:01.109Z,19.86
2022-10-18T01:54:33.292Z,19.77
2022-10-18T01:57:29.052Z,19.49
2022-10-18T02:00:10.591Z,19.40
2022-10-18T02:03:01.288Z,19.17
2022-10-18T02:05:41.407Z,19.20
2022-10-18T02:08:23.769Z,19.36
2022-10-18T02:11:06.504Z,19.36
2022-10-18T02:13:38.652Z,19.65
2022-10-18T02:16:10.909Z,19.54
2022-10-18T02:18:42.031Z,19.45
2022-10-18T02:21:12.208Z,19.33
2022-10-18T02:23:39.093Z,19.34
2022-10-18T02:26:06.292Z,19.37
2022-10-18T02:28:32.795Z,19.32
2022-10-18T02:31:12.885Z,19.31
2022-10-18T02:33:49.327Z,19.40
2022-10-18T02:36:24.044Z,19.27
2022-10-18T02:38:55.005Z,19.41
2022-10-18T02:41:27.036Z,18.96
2022-10-18T02:43:53.878Z,19.08
2022-10-18T02:46:21.036Z,19.23
2022-10-18T02:48:47.646Z,19.22
2022-10-18T02:51:14.329Z,19.14
2022-10-18T02:53:41.168Z,19.37
2022-10-18T02:56:07.953Z,19.39
2022-10-18T02:58:34.575Z,19.45
2022-10-18T03:01:01.058Z,18.96
2022-10-18T03:03:27.543Z,19.10
2022-10-18T03:05:54.002Z,19.67
2022-10-18T03:08:22.612Z,19.43
2022-10-18T03:10:49.162Z,19.26
2022-10-18T03:13:15.876Z,19.19
2022-10-18T03:15:42.578Z,19.24
2022-10-18T03:18:09.353Z,19.23
2022-10-18T03:20:36.764Z,19.27
2022-10-18T03:23:03.408Z,19.61
2022-10-18T03:25:29.900Z,19.92
2022-10-18T03:27:56.405Z,20.09
2022-10-18T03:30:22.873Z,19.58
2022-10-18T03:32:49.408Z,18.99
2022-10-18T03:35:16.073Z,19.07
2022-10-18T03:37:42.600Z,19.78
2022-10-18T03:40:09.452Z,20.05
2022-10-18T03:42:35.957Z,19.39
2022-10-18T03:45:02.453Z,18.99
2022-10-18T03:47:28.944Z,19.07
2022-10-18T03:49:57.223Z,18.87
2022-10-18T03:52:24.441Z,18.61
2022-10-18T03:54:50.948Z,18.83
2022-10-18T03:57:17.596Z,18.83
2022-10-18T03:59:44.083Z,19.42
2022-10-18T04:02:10.624Z,18.64
2022-10-18T04:04:37.081Z,18.49
2022-10-18T04:07:03.570Z,18.44
2022-10-18T04:09:30.021Z,18.29
2022-10-18T04:11:56.495Z,18.54
2022-10-18T04:14:23.047Z,18.83
2022-10-18T04:16:49.608Z,18.50
2022-10-18T04:19:16.354Z,18.52
2022-10-18T04:21:42.802Z,18.38
2022-10-18T04:24:09.286Z,18.32
2022-10-18T04:26:35.760Z,18.54
2022-10-18T04:29:02.340Z,18.78
2022-10-18T04:31:28.876Z,18.77
2022-10-18T04:33:55.367Z,19.17
2022-10-18T04:36:21.851Z,19.30
2022-10-18T04:38:48.386Z,19.16
2022-10-18T04:41:14.919Z,18.10
2022-10-18T04:43:41.401Z,17.90
2022-10-18T04:46:07.927Z,18.56
2022-10-18T04:48:34.390Z,18.63
2022-10-18T04:51:00.906Z,18.08
2022-10-18T04:53:27.370Z,18.37
2022-10-18T04:55:53.836Z,19.01
2022-10-18T04:58:20.594Z,18.72
2022-10-18T05:00:47.739Z,18.25
2022-10-18T05:03:14.813Z,18.20
2022-10-18T05:06:00.767Z,18.23
2022-10-18T05:08:28.348Z,18.24
2022-10-18T05:10:54.810Z,18.11
2022-10-18T05:13:21.440Z,18.16
2022-10-18T05:15:47.965Z,18.00
2022-10-18T05:18:14.779Z,18.10
2022-10-18T05:20:41.301Z,18.09
2022-10-18T05:23:10.682Z,18.25
2022-10-18T05:25:41.829Z,18.15
2022-10-18T05:28:10.957Z,18.14
2022-10-18T05:30:42.880Z,18.03
2022-10-18T05:33:09.531Z,18.20
2022-10-18T05:35:36.585Z,18.41
2022-10-18T05:38:05.767Z,18.35
2022-10-18T05:40:33.473Z,18.37
2022-10-18T05:43:00.015Z,18.04
2022-10-18T05:45:26.671Z,17.70
2022-10-18T05:47:54.067Z,17.92
2022-10-18T05:50:20.560Z,18.06
2022-10-18T05:52:47.058Z,18.18
2022-10-18T05:55:13.676Z,18.27
2022-10-18T05:57:40.146Z,18.24
2022-10-18T06:00:07.204Z,18.21
2022-10-18T06:02:33.825Z,18.06
2022-10-18T06:05:00.323Z,18.30
2022-10-18T06:07:26.808Z,18.38
2022-10-18T06:09:53.253Z,18.51
2022-10-18T06:12:19.776Z,18.47
2022-10-18T06:14:46.310Z,19.05
2022-10-18T06:17:12.923Z,19.35
2022-10-18T06:19:39.418Z,19.34
2022-10-18T06:22:05.906Z,18.62
2022-10-18T06:24:32.379Z,18.04
2022-10-18T06:26:58.990Z,18.31
2022-10-18T06:29:25.538Z,18.40
2022-10-18T06:31:52.063Z,17.96
2022-10-18T06:34:18.654Z,18.02
2022-10-18T06:36:45.109Z,18.57
2022-10-18T06:39:11.561Z,18.03
2022-10-18T06:41:38.042Z,18.09
2022-10-18T06:44:13.463Z,18.05
2022-10-18T06:46:44.297Z,17.91
2022-10-18T06:49:13.106Z,18.29
2022-10-18T06:51:42.918Z,18.16
2022-10-18T06:54:18.355Z,18.53
2022-10-18T06:56:45.592Z,18.47
2022-10-18T06:59:12.199Z,18.31
2022-10-18T07:01:38.851Z,18.80
2022-10-18T07:04:05.516Z,19.13
2022-10-18T07:06:32.012Z,19.02
2022-10-18T07:08:58.599Z,18.86
2022-10-18T07:11:26.993Z,18.80
2022-10-18T07:13:55.737Z,18.81
2022-10-18T07:16:22.218Z,18.63
2022-10-18T07:18:51.253Z,17.82
2022-10-18T07:21:20.527Z,17.73
2022-10-18T07:23:48.039Z,18.08
2022-10-18T07:26:21.586Z,18.48
2022-10-18T07:28:52.147Z,18.28
2022-10-18T07:31:18.789Z,18.75
2022-10-18T07:33:45.268Z,19.12
2022-10-18T07:36:13.097Z,18.56
2022-10-18T07:38:39.978Z,18.35
2022-10-18T07:41:08.117Z,18.33
2022-10-18T07:43:35.486Z,18.55
2022-10-18T07:46:04.623Z,18.61
2022-10-18T07:48:31.484Z,18.76
2022-10-18T07:50:59.556Z,18.76
2022-10-18T07:53:26.709Z,18.66
2022-10-18T07:55:58.947Z,18.95
2022-10-18T07:58:25.552Z,19.31
2022-10-18T08:00:52.088Z,19.32
2022-10-18T08:03:18.947Z,18.99
2022-10-18T08:05:52.792Z,18.68
2022-10-18T08:08:20.635Z,18.65
2022-10-18T08:10:47.245Z,18.94
2022-10-18T08:13:14.295Z,19.57
2022-10-18T08:15:44.768Z,19.95
2022-10-18T08:18:11.706Z,19.83
2022-10-18T08:20:43.951Z,20.01
2022-10-18T08:23:10.662Z,19.41
2022-10-18T08:25:37.281Z,19.79
2022-10-18T08:28:04.101Z,19.49
2022-10-18T08:30:30.835Z,19.95
2022-10-18T08:32:57.613Z,19.93
2022-10-18T08:35:24.205Z,20.00
2022-10-18T08:37:51.250Z,19.32
2022-10-18T08:40:17.870Z,18.95
2022-10-18T08:42:57.881Z,19.74
2022-10-18T08:45:40.965Z,20.32
2022-10-18T08:48:21.622Z,20.02
2022-10-18T08:50:49.650Z,20.51
2022-10-18T08:53:31.395Z,19.80
2022-10-18T08:56:11.454Z,19.50
2022-10-18T08:58:38.505Z,19.80
2022-10-18T09:01:17.095Z,19.76
2022-10-18T09:04:21.122Z,20.44
2022-10-18T09:07:25.544Z,21.05
2022-10-18T09:10:13.657Z,21.34
2022-10-18T09:13:08.880Z,21.31
2022-10-18T09:15:59.306Z,21.27
2022-10-18T09:19:08.527Z,21.14
2022-10-18T09:21:43.671Z,21.16
2022-10-18T09:24:32.090Z,21.08
2022-10-18T09:27:05.738Z,21.04
2022-10-18T09:29:50.768Z,21.25
2022-10-18T09:32:51.274Z,21.22
2022-10-18T09:35:40.246Z,21.11
2022-10-18T09:38:12.307Z,21.32
2022-10-18T09:40:52.608Z,22.02
2022-10-18T09:43:24.936Z,22.17
2022-10-18T09:45:54.343Z,21.61
2022-10-18T09:48:31.147Z,21.66
2022-10-18T09:51:11.388Z,22.28
2022-10-18T09:53:46.055Z,21.80
2022-10-18T09:56:25.716Z,21.32
2022-10-18T09:58:52.555Z,21.87
2022-10-18T10:01:25.551Z,21.10
2022-10-18T10:03:52.439Z,21.38
2022-10-18T10:06:30.589Z,21.70
2022-10-18T10:09:08.281Z,21.24
2022-10-18T10:11:50.143Z,21.69
2022-10-18T10:14:22.388Z,22.04
2022-10-18T10:16:57.248Z,21.16
2022-10-18T10:19:56.471Z,21.69
2022-10-18T10:22:39.892Z,21.30
2022-10-18T10:25:21.527Z,21.85
2022-10-18T10:27:48.124Z,21.81
2022-10-18T10:30:24.334Z,21.83
2022-10-18T10:32:53.008Z,21.03
2022-10-18T10:35:53.431Z,20.72
2022-10-18T10:38:25.646Z,20.71
2022-10-18T10:40:52.629Z,20.73
2022-10-18T10:43:37.718Z,21.00
2022-10-18T10:46:09.726Z,21.49
2022-10-18T10:48:49.348Z,21.98
2022-10-18T10:51:18.821Z,22.09
2022-10-18T10:54:00.175Z,22.21
2022-10-18T10:56:33.276Z,22.94
2022-10-18T10:59:18.241Z,23.02
2022-10-18T11:01:49.630Z,22.52
2022-10-18T11:04:30.755Z,22.25
2022-10-18T11:07:17.388Z,22.44
2022-10-18T11:09:58.729Z,22.50
2022-10-18T11:12:35.197Z,22.48
2022-10-18T11:15:14.002Z,22.83
2022-10-18T11:17:59.735Z,22.62
2022-10-18T11:20:35.514Z,22.08
2022-10-18T11:23:07.189Z,22.27
2022-10-18T11:26:01.296Z,21.83
2022-10-18T11:28:36.855Z,21.51
2022-10-18T11:31:32.432Z,21.60
2022-10-18T11:34:30.125Z,22.30
2022-10-18T11:37:27.682Z,23.02
2022-10-18T11:40:05.997Z,22.97
2022-10-18T11:42:58.374Z,22.58
2022-10-18T11:45:42.199Z,23.35
2022-10-18T11:48:25.668Z,22.45
2022-10-18T11:51:12.991Z,21.31
2022-10-18T11:54:02.547Z,21.64
2022-10-18T11:56:57.651Z,21.69
2022-10-18T11:59:45.450Z,21.70
2022-10-18T12:02:30.835Z,22.01
2022-10-18T12:08:03.876Z,22.17
2022-10-18T12:10:45.957Z,21.91
2022-10-18T12:13:51.067Z,22.13
2022-10-18T12:16:38.987Z,21.32
2022-10-18T12:19:23.739Z,21.48
2022-10-18T12:22:00.097Z,21.03
2022-10-18T12:24:30.225Z,21.37
2022-10-18T12:27:18.996Z,21.63
2022-10-18T12:30:00.867Z,21.70
2022-10-18T12:32:33.244Z,21.83
2022-10-18T12:35:06.004Z,21.55
2022-10-18T12:37:55.252Z,21.71
2022-10-18T12:40:41.964Z,21.42
2022-10-18T12:43:10.991Z,21.64
2022-10-18T12:45:54.034Z,21.56
2022-10-18T12:48:31.523Z,22.01
2022-10-18T12:51:03.337Z,22.32
2022-10-18T12:53:31.612Z,23.41
2022-10-18T12:56:39.906Z,22.69
2022-10-18T12:59:26.675Z,22.46
2022-10-18T13:02:05.489Z,22.98
2022-10-18T13:04:35.249Z,23.72
2022-10-18T13:07:04.849Z,24.37
2022-10-18T13:09:36.478Z,24.27
2022-10-18T13:12:08.830Z,22.22
2022-10-18T13:15:05.980Z,22.04
2022-10-18T13:17:47.042Z,21.87
2022-10-18T13:20:54.746Z,22.08
2022-10-18T13:23:41.333Z,22.07
2022-10-18T13:26:20.343Z,21.64
2022-10-18T13:29:09.646Z,21.49
2022-10-18T13:31:49.543Z,21.67
2022-10-18T13:34:24.894Z,21.83
2022-10-18T13:37:09.737Z,22.29
2022-10-18T13:39:37.958Z,22.28
2022-10-18T13:42:27.818Z,22.03
2022-10-18T13:44:54.383Z,22.34
2022-10-18T13:47:37.570Z,22.52
2022-10-18T13:50:30.811Z,22.45
2022-10-18T13:53:16.096Z,22.50
2022-10-18T13:55:49.819Z,23.31
2022-10-18T13:58:28.951Z,23.44
2022-10-18T14:01:01.489Z,23.52
2022-10-18T14:04:04.337Z,23.71
2022-10-18T14:06:37.297Z,23.11
2022-10-18T14:09:25.530Z,24.06
2022-10-18T14:12:07.344Z,24.40
2022-10-18T14:14:42.812Z,24.33
2022-10-18T14:17:27.075Z,25.57
2022-10-18T14:20:00.050Z,26.05
2022-10-18T14:22:40.185Z,24.80
2022-10-18T14:25:22.252Z,24.41
2022-10-18T14:27:52.260Z,24.53
2022-10-18T14:30:21.190Z,24.99
2022-10-18T14:32:50.264Z,23.60
2022-10-18T14:35:32.058Z,22.91
2022-10-18T14:37:59.941Z,22.60
2022-10-18T14:40:36.281Z,22.07
2022-10-18T14:43:14.732Z,21.92
2022-10-18T14:45:42.592Z,22.10
2022-10-18T14:48:20.488Z,21.99
2022-10-18T14:50:50.243Z,22.14
2022-10-18T14:53:21.972Z,21.98
2022-10-18T14:55:57.831Z,21.73
2022-10-18T14:58:24.629Z,21.72
2022-10-18T15:00:51.250Z,21.84
2022-10-18T15:03:18.709Z,21.53
2022-10-18T15:06:15.422Z,21.56
2022-10-18T15:08:43.411Z,21.39
2022-10-18T15:11:14.307Z,22.51
2022-10-18T15:14:11.547Z,22.27
2022-10-18T15:16:39.642Z,22.07
2022-10-18T15:19:15.210Z,22.46
2022-10-18T15:22:30.247Z,22.11
2022-10-18T15:25:05.873Z,22.08
2022-10-18T15:27:36.167Z,22.17
2022-10-18T15:30:22.504Z,22.11
2022-10-18T15:32:54.921Z,21.46
2022-10-18T15:35:39.629Z,21.44
2022-10-18T15:38:31.766Z,21.86
2022-10-18T15:40:58.798Z,21.46
2022-10-18T15:43:28.174Z,21.51
2022-10-18T15:46:06.786Z,21.34
2022-10-18T15:48:37.176Z,21.20
2022-10-18T15:51:09.016Z,21.15
2022-10-18T15:53:51.293Z,20.90
2022-10-18T15:56:30.033Z,20.92
2022-10-18T15:58:59.024Z,20.84
2022-10-18T16:01:42.947Z,20.71
2022-10-18T16:04:20.276Z,20.71
2022-10-18T16:06:46.764Z,20.61
2022-10-18T16:09:17.047Z,20.72
2022-10-18T16:11:44.059Z,20.83
2022-10-18T16:14:11.001Z,20.70
2022-10-18T16:16:39.130Z,21.22
2022-10-18T16:19:06.098Z,21.37
2022-10-18T16:21:35.898Z,20.96
2022-10-18T16:24:02.889Z,20.80
2022-10-18T16:26:29.569Z,20.76
2022-10-18T16:28:57.952Z,20.90
2022-10-18T16:31:29.240Z,20.75
2022-10-18T16:33:56.530Z,20.39
2022-10-18T16:36:26.122Z,20.20
2022-10-18T16:38:54.834Z,20.56
2022-10-18T16:41:21.891Z,20.37
2022-10-18T16:43:49.522Z,20.07
2022-10-18T16:46:17.336Z,19.85
2022-10-18T16:48:44.774Z,19.69
2022-10-18T16:51:11.924Z,19.89
2022-10-18T16:53:38.464Z,19.57
2022-10-18T16:56:11.501Z,19.16
2022-10-18T16:58:38.011Z,19.52
2022-10-18T17:01:08.011Z,19.34
2022-10-18T17:03:35.892Z,19.20
2022-10-18T17:06:02.699Z,18.97
2022-10-18T17:08:29.377Z,18.93
2022-10-18T17:10:58.366Z,18.86
2022-10-18T17:13:26.350Z,19.12
2022-10-18T17:15:53.623Z,18.98
2022-10-18T17:18:30.378Z,18.98
2022-10-18T17:20:59.260Z,19.02
2022-10-18T17:23:26.094Z,18.92
2022-10-18T17:26:06.748Z,18.88
2022-10-18T17:28:36.399Z,18.82
2022-10-18T17:31:05.998Z,19.02
2022-10-18T17:33:32.815Z,18.99
2022-10-18T17:35:59.349Z,19.14
2022-10-18T17:38:25.916Z,19.26
2022-10-18T17:40:53.308Z,19.21
2022-10-18T17:43:20.052Z,19.23
2022-10-18T17:45:54.228Z,19.18
2022-10-18T17:48:21.346Z,18.95
2022-10-18T17:50:48.060Z,19.08
2022-10-18T17:53:14.995Z,19.09
2022-10-18T17:55:41.510Z,18.73
2022-10-18T17:58:08.231Z,18.64
2022-10-18T18:00:34.842Z,18.96
2022-10-18T18:03:01.675Z,18.82
2022-10-18T18:05:33.455Z,18.78
2022-10-18T18:08:03.814Z,18.79
2022-10-18T18:10:33.580Z,18.64
2022-10-18T18:13:00.795Z,18.68
2022-10-18T18:15:27.558Z,18.61
2022-10-18T18:17:57.861Z,18.52
2022-10-18T18:20:25.865Z,18.46
2022-10-18T18:22:52.411Z,18.25
2022-10-18T18:25:18.946Z,18.59
2022-10-18T18:27:45.470Z,18.70
2022-10-18T18:30:12.451Z,18.66
2022-10-18T18:32:39.029Z,18.70
2022-10-18T18:35:05.909Z,18.50
2022-10-18T18:37:32.777Z,18.19
2022-10-18T18:39:59.427Z,18.26
2022-10-18T18:42:25.900Z,18.23
2022-10-18T18:44:52.405Z,18.14
2022-10-18T18:47:21.457Z,18.38
2022-10-18T18:49:48.372Z,18.25
2022-10-18T18:52:14.900Z,18.21
2022-10-18T18:54:41.359Z,18.25
2022-10-18T18:57:07.932Z,18.51
2022-10-18T18:59:34.512Z,18.27
2022-10-18T19:02:01.001Z,18.12
2022-10-18T19:04:28.908Z,18.04
2022-10-18T19:06:56.015Z,17.91
2022-10-18T19:09:22.989Z,18.32
2022-10-18T19:11:52.772Z,18.68
2022-10-18T19:14:20.043Z,18.00
2022-10-18T19:16:49.013Z,17.73
2022-10-18T19:19:26.243Z,17.74
2022-10-18T19:21:55.414Z,17.92
2022-10-18T19:24:23.565Z,18.11
2022-10-18T19:26:56.807Z,17.89
2022-10-18T19:29:25.731Z,17.81
2022-10-18T19:31:54.253Z,18.21
2022-10-18T19:34:22.177Z,18.04
2022-10-18T19:36:50.273Z,17.84
2022-10-18T19:39:22.390Z,18.11
2022-10-18T19:41:51.906Z,18.12
2022-10-18T19:44:20.029Z,17.84
2022-10-18T19:46:47.306Z,17.75
2022-10-18T19:49:13.798Z,17.70
2022-10-18T19:51:40.749Z,17.65
2022-10-18T19:54:07.468Z,17.78
2022-10-18T19:56:34.064Z,17.84
2022-10-18T19:59:01.235Z,18.23
2022-10-18T20:01:29.093Z,18.43
2022-10-18T20:03:56.421Z,18.24
2022-10-18T20:06:23.471Z,18.23
2022-10-18T20:08:50.616Z,18.01
2022-10-18T20:11:20.333Z,18.15
2022-10-18T20:13:47.704Z,18.06
2022-10-18T20:16:15.592Z,18.09
2022-10-18T20:18:45.009Z,18.19
2022-10-18T20:21:14.091Z,18.30
2022-10-18T20:23:41.989Z,18.57
2022-10-18T20:26:15.542Z,18.39
2022-10-18T20:28:45.559Z,18.40
2022-10-18T20:31:20.300Z,18.22
2022-10-18T20:33:53.070Z,18.16
2022-10-18T20:36:19.617Z,18.22
2022-10-18T20:38:47.521Z,18.14
2022-10-18T20:41:20.266Z,18.04
2022-10-18T20:43:57.670Z,18.10
2022-10-18T20:46:24.906Z,17.95
2022-10-18T20:48:52.581Z,18.05
2022-10-18T20:51:20.063Z,18.18
2022-10-18T20:53:46.893Z,17.75
2022-10-18T20:56:16.618Z,17.55
2022-10-18T20:58:44.378Z,18.06
2022-10-18T21:01:17.592Z,17.77
2022-10-18T21:03:45.894Z,17.25
2022-10-18T21:06:17.865Z,17.30
2022-10-18T21:08:45.386Z,17.19
2022-10-18T21:11:12.998Z,17.00
2022-10-18T21:13:40.856Z,17.23
2022-10-18T21:16:08.038Z,17.07
2022-10-18T21:18:36.492Z,17.20
2022-10-18T21:23:40.449Z,17.29
2022-10-18T21:26:08.076Z,17.33
2022-10-18T21:28:35.003Z,17.55
2022-10-18T21:31:21.971Z,17.63
2022-10-18T21:33:56.269Z,17.42
2022-10-18T21:36:24.253Z,17.40
2022-10-18T21:38:51.138Z,17.36
2022-10-18T21:41:20.150Z,17.62
2022-10-18T21:43:49.162Z,17.26
2022-10-18T21:46:16.911Z,16.76
2022-10-18T21:48:48.535Z,16.87
2022-10-18T21:51:20.139Z,17.09
2022-10-18T21:53:48.306Z,16.38
2022-10-18T21:56:17.505Z,16.66
2022-10-18T21:58:44.899Z,16.45
2022-10-18T22:01:15.153Z,16.53
2022-10-18T22:03:42.602Z,16.31
2022-10-18T22:06:16.169Z,16.33
2022-10-18T22:08:49.966Z,16.64
2022-10-18T22:11:17.907Z,16.76
2022-10-18T22:13:45.189Z,16.62
2022-10-18T22:16:14.440Z,16.38
2022-10-18T22:18:42.007Z,16.59
2022-10-18T22:21:10.172Z,16.44
2022-10-18T22:23:48.962Z,16.22
2022-10-18T22:26:18.326Z,16.35
2022-10-18T22:28:45.832Z,16.53
2022-10-18T22:31:20.659Z,16.46
2022-10-18T22:33:47.598Z,16.60
2022-10-18T22:36:14.155Z,15.71
2022-10-18T22:38:40.636Z,16.15
2022-10-18T22:41:09.143Z,16.15
2022-10-18T22:43:36.212Z,16.24
2022-10-18T22:46:05.105Z,16.09
2022-10-18T22:48:31.781Z,16.13
2022-10-18T22:50:58.249Z,16.09
2022-10-18T22:53:24.955Z,15.96
2022-10-18T22:55:52.134Z,16.25
2022-10-18T22:58:19.549Z,15.93
2022-10-18T23:00:46.399Z,16.17
2022-10-18T23:03:15.797Z,16.21
2022-10-18T23:05:44.014Z,16.05
2022-10-18T23:08:11.924Z,16.26
2022-10-18T23:10:40.657Z,16.09
2022-10-18T23:13:08.739Z,16.25
2022-10-18T23:15:35.495Z,16.15
2022-10-18T23:18:02.177Z,16.03
2022-10-18T23:20:28.643Z,16.42
2022-10-18T23:22:55.146Z,16.19
2022-10-18T23:25:21.807Z,16.07
2022-10-18T23:27:48.427Z,15.99
2022-10-18T23:30:14.851Z,15.73
2022-10-18T23:32:41.267Z,15.89
2022-10-18T23:35:08.120Z,15.90
2022-10-18T23:37:35.060Z,15.92
2022-10-18T23:40:01.764Z,16.15
2022-10-18T23:42:28.253Z,16.17
2022-10-18T23:44:54.666Z,16.18
2022-10-18T23:47:21.174Z,16.21
2022-10-18T23:49:47.648Z,16.07
2022-10-18T23:52:14.137Z,16.21
2022-10-18T23:54:40.668Z,16.21
2022-10-18T23:57:07.190Z,16.19
2022-10-18T23:59:33.667Z,16.18
